WIMM/MES METAR and TAF weather

Enter ICAO airport designator
Station Type Date Time Source
WIMM METAR 2020/08/15 17:00 UTC NOAA

WIMM 151700Z 21002KT 4000 BR SCT017 27/26 Q1009 NOSIG


Station Type Date Time Source
WIMM Decoded METAR 2020/08/15 17:00 UTC NOAA

Medan / Polonia, Indonesia (WIMM) 03-34N 098-41E 25M
Aug 15, 2020 - 01:00 PM EDT / 2020.08.15 1700 UTC
Wind: from the SSW (210 degrees) at 2 MPH (2 KT):0
Visibility: 2 mile(s):0
Sky conditions: partly cloudy
Weather: mist
Temperature: 80 F (27 C)
Dew Point: 78 F (26 C)
Relative Humidity: 94%
Pressure (altimeter): 29.80 in. Hg (1009 hPa)
ob: WIMM 151700Z 21002KT 4000 BR SCT017 27/26 Q1009 NOSIG
cycle: 17

Station Type Date Time Source
WIMM TAF 2020/08/15 18:09 UTC NOAA

TAF WIMM 151700Z 1518/1618 20004KT 3000 BR SCT017
BECMG 1602/1604 07010KT 9000 NSW
TEMPO 1609/1613 VRB05KT 4000 -RA FEW016CB
BECMG 1614/1616 18003KT 4000 HZ

Example: see airport list